Flight Track Log - Related Links

Times and Time Zones

All times are in EDT time to prevent confusion due to time zone crossing. See the N756WB flight status page for this flight to view local times or setup timezone preferences in your user account.

Time Position Orientation Groundspeed Altitude Reporting Facility
EDT Latitude Longitude Course Direction KTS MPH feet Rate Location/Type
Tue 06:50:57 PM 35.8728 -78.8089 317° Northwest 75 86 1,100  Level Washington Center
Tue 06:51:52 PM 35.8869 -78.8250 317° Northwest 79 91 1,800 776 Climbing Washington Center
Tue 06:52:53 PM 35.9031 -78.8486 310° West 89 102 2,600 776 Climbing Washington Center
Tue 06:53:48 PM 35.9217 -78.8544 346° North 93 107 3,300 632 Climbing Washington Center
Tue 06:55:06 PM 35.9594 -78.8536 North 108 124 4,000 298 Climbing Washington Center
Tue 06:55:49 PM 35.9844 -78.8519 North 138 159 3,900  Descending Washington Center
Tue 06:56:56 PM 36.0242 -78.8511 North 135 155 4,000  Climbing Washington Center
Tue 06:57:51 PM 36.0614 -78.8578 352° North 138 159 3,900 55 Descending Washington Center
Tue 06:58:45 PM 36.0947 -78.8617 355° North 132 152 4,100 400 Climbing Washington Center
Tue 06:59:51 PM 36.1247 -78.8372 33° Northeast 124 143 4,700 520 Climbing Washington Center
Tue 07:00:52 PM 36.1506 -78.8022 48° Northeast 117 135 5,200 446 Climbing Washington Center
Tue 07:01:52 PM 36.1722 -78.7750 45° Northeast 120 138 5,600 446 Climbing Washington Center
Tue 07:02:53 PM 36.1958 -78.7450 46° Northeast 116 133 6,100 496 Climbing Washington Center
Tue 07:03:53 PM 36.2194 -78.7203 40° Northeast 113 130 6,600 443 Climbing Washington Center
Tue 07:04:55 PM 36.2392 -78.6925 49° Northeast 111 128 7,000 164 Climbing Washington Center
Tue 07:06:19 PM 36.2736 -78.6425 49° Northeast 131 151 7,000 41 Level Washington Center
Tue 07:07:20 PM 36.2994 -78.6150 41° Northeast 131 151 7,100  Climbing Washington Center
Tue 07:08:20 PM 36.3297 -78.5775 45° Northeast 131 151 7,000 -51 Descending Washington Center
Tue 07:09:18 PM 36.3533 -78.5475 46° Northeast 131 151 7,000  Level Washington Center
Tue 07:10:18 PM 36.3814 -78.5100 47° Northeast 131 151 7,000  Level Washington Center
Tue 07:11:19 PM 36.4114 -78.4775 41° Northeast 137 158 7,000 -49 Level Washington Center
Tue 07:12:20 PM 36.4394 -78.4422 45° Northeast 137 158 6,900 -50 Descending Washington Center
Tue 07:13:18 PM 36.4672 -78.4097 43° Northeast 137 158 6,900 50 Level Washington Center
Tue 07:14:19 PM 36.4931 -78.3719 50° Northeast 137 158 7,000  Climbing Washington Center
Tue 07:15:19 PM 36.5231 -78.3394 41° Northeast 137 158 6,900 -50 Descending Washington Center
Tue 07:16:20 PM 36.5489 -78.3042 48° Northeast 137 158 6,900  Level Washington Center
Tue 07:17:20 PM 36.5750 -78.2636 51° Northeast 137 158 6,900 -51 Level Washington Center
Tue 07:18:18 PM 36.6028 -78.2308 43° Northeast 132 152 6,800  Descending Washington Center
Tue 07:19:18 PM 36.6267 -78.1903 54° Northeast 132 152 6,900 50 Climbing Washington Center
Tue 07:20:19 PM 36.6522 -78.1550 48° Northeast 132 152 6,900 -49 Level Washington Center
Tue 07:21:20 PM 36.6783 -78.1169 49° Northeast 132 152 6,800  Descending Washington Center
Tue 07:22:18 PM 36.7039 -78.0789 50° Northeast 132 152 6,900  Climbing Washington Center
Tue 07:23:19 PM 36.7175 -78.0353 69° East 132 152 6,800  Descending Washington Center
Tue 07:24:20 PM 36.7350 -77.9969 60° Northeast 132 152 6,900 101 Climbing Washington Center
Tue 07:25:18 PM 36.7586 -77.9589 52° Northeast 132 152 7,000 51 Climbing Washington Center
Tue 07:26:18 PM 36.7822 -77.9258 48° Northeast 132 152 7,000  Level Washington Center
Tue 07:27:18 PM 36.8081 -77.8903 48° Northeast 127 146 7,000  Level Washington Center
Tue 07:28:19 PM 36.8294 -77.8597 49° Northeast 127 146 7,000  Level Washington Center
Tue 07:29:20 PM 36.8550 -77.8269 46° Northeast 132 152 7,000  Level Washington Center
Tue 07:30:20 PM 36.8828 -77.7939 44° Northeast 132 152 7,000  Level Washington Center
Tue 07:31:21 PM 36.9064 -77.7583 50° Northeast 132 152 7,000 -51 Level Washington Center
Tue 07:32:18 PM 36.9319 -77.7225 48° Northeast 132 152 6,900  Descending Washington Center
Tue 07:33:18 PM 36.9556 -77.6867 50° Northeast 132 152 7,000 37 Climbing Washington Center
Tue 07:35:01 PM 37.0000 -77.6167 52° Northeast 139 160 7,000  Level Potomac TRACON
Tue 07:36:07 PM 37.0333 -77.5833 39° Northeast 133 153 7,000  Level Potomac TRACON
Tue 07:37:02 PM 37.0500 -77.5667 39° Northeast 135 155 7,000  Level Potomac TRACON
Tue 07:38:02 PM 37.0833 -77.5333 39° Northeast 138 159 7,000  Level Potomac TRACON
Tue 07:39:02 PM 37.1000 -77.4833 67° East 138 159 7,000 50 Level Potomac TRACON
Tue 07:40:02 PM 37.1167 -77.4500 58° Northeast 135 155 7,100  Climbing Potomac TRACON
Tue 07:40:56 PM 37.1333 -77.4167 58° Northeast 139 160 7,000  Descending Potomac TRACON
Tue 07:41:56 PM 37.1500 -77.3667 67° East 132 152 7,100 50 Climbing Potomac TRACON
Tue 07:42:56 PM 37.1833 -77.3333 39° Northeast 132 152 7,100  Level Potomac TRACON
Tue 07:43:56 PM 37.2167 -77.3167 22° Northeast 131 151 7,100 -50 Level Potomac TRACON
Tue 07:44:56 PM 37.2500 -77.3000 22° Northeast 135 155 7,000 -100 Descending Potomac TRACON
Tue 07:45:56 PM 37.2833 -77.2667 39° Northeast 140 161 6,900  Descending Potomac TRACON
Tue 07:46:56 PM 37.3167 -77.2500 22° Northeast 134 154 7,000 100 Climbing Potomac TRACON
Tue 07:47:56 PM 37.3333 -77.2333 38° Northeast 131 151 7,100 53 Climbing Potomac TRACON
Tue 07:48:50 PM 37.3667 -77.2167 22° Northeast 139 160 7,100 -50 Level Potomac TRACON
Tue 07:49:56 PM 37.4000 -77.2000 22° Northeast 139 160 7,000 -48 Descending Potomac TRACON
Tue 07:50:56 PM 37.4333 -77.1667 38° Northeast 135 155 7,000 -50 Level Potomac TRACON
Tue 07:51:56 PM 37.4667 -77.1500 22° Northeast 133 153 6,900 -50 Descending Potomac TRACON
Tue 07:52:56 PM 37.5000 -77.1333 22° Northeast 139 160 6,900  Level Potomac TRACON
Tue 07:53:50 PM 37.5333 -77.1000 38° Northeast 135 155 6,900  Level Potomac TRACON
Tue 07:54:50 PM 37.5667 -77.0833 22° Northeast 133 153 6,900 50 Level Potomac TRACON
Tue 07:55:50 PM 37.6000 -77.0667 22° Northeast 135 155 7,000  Climbing Potomac TRACON
Tue 07:56:50 PM 37.6333 -77.0333 38° Northeast 136 157 6,900 -50 Descending Potomac TRACON
Tue 07:57:50 PM 37.6667 -77.0167 22° Northeast 135 155 6,900  Level Potomac TRACON
Tue 07:58:50 PM 37.7000 -77.0000 22° Northeast 134 154 6,900  Level Potomac TRACON
Tue 07:59:50 PM 37.7333 -76.9833 22° Northeast 128 147 6,900  Level Potomac TRACON
Tue 08:00:50 PM 37.7667 -76.9500 38° Northeast 140 161 6,900  Level Potomac TRACON
Tue 08:01:43 PM 37.7883 -76.9319 33° Northeast 132 152 6,900  Level Washington Center
Tue 08:02:50 PM 37.8219 -76.9061 31° Northeast 137 158 6,900 47 Level Washington Center
Tue 08:03:51 PM 37.8556 -76.8778 34° Northeast 135 155 7,000 50 Climbing Washington Center
Tue 08:04:49 PM 37.8892 -76.8575 25° Northeast 134 154 7,000  Level Washington Center
Tue 08:05:50 PM 37.9228 -76.8317 31° Northeast 138 159 7,000  Level Washington Center
Tue 08:06:51 PM 37.9583 -76.8139 22° Northeast 140 161 7,000 -47 Level Washington Center
Tue 08:07:57 PM 37.9983 -76.7958 20° North 138 159 6,900 -142 Descending Washington Center
Tue 08:08:58 PM 38.0339 -76.7756 24° Northeast 134 154 6,700 -488 Descending Washington Center
Tue 08:10:00 PM 38.0675 -76.7550 26° Northeast 135 155 5,900 -787 Descending Washington Center
Tue 08:11:00 PM 38.1031 -76.7394 19° North 131 151 5,100 -793 Descending Washington Center
Tue 08:12:01 PM 38.1386 -76.7375 North 124 143 4,300 -639 Descending Washington Center
Tue 08:13:02 PM 38.1719 -76.7381 359° North 122 140 3,800 -541 Descending Washington Center
Tue 08:14:03 PM 38.2075 -76.7358 North 122 140 3,200 -397 Descending Washington Center
Tue 08:15:03 PM 38.2386 -76.7336 North 121 139 3,000 -102 Descending Washington Center
Tue 08:16:01 PM 38.2742 -76.7342 359° North 118 136 3,000 -100 Level Washington Center
Tue 08:17:03 PM 38.3056 -76.7322 North 110 127 2,800 -295 Descending Washington Center
Tue 08:18:03 PM 38.3306 -76.7272 North 93 107 2,400 -446 Descending Washington Center
Tue 08:19:04 PM 38.3475 -76.7036 48° Northeast 98 113 1,900 -393 Descending Washington Center
Tue 08:20:05 PM 38.3353 -76.6744 118° Southeast 92 106 1,600 -246 Descending Washington Center
Tue 08:21:06 PM 38.3314 -76.6425 99° East 90 104 1,400 -347 Descending Washington Center
Tue 08:22:06 PM 38.3253 -76.6133 105° East 91 105 900 -443 Descending Washington Center
Tue 08:23:08 PM 38.3214 -76.5814 99° East 88 101 500 -387 Descending Washington Center

Login

Don't have an account? Register now (free) for customized features, flight alerts, and more!